createdAt,value
2019-03-09T00:00:43.913Z,2.87
2019-03-09T00:03:12.593Z,2.73
2019-03-09T00:05:39.318Z,3.43
2019-03-09T00:08:06.101Z,3.35
2019-03-09T00:10:32.911Z,2.30
2019-03-09T00:12:59.757Z,3.10
2019-03-09T00:15:26.427Z,5.90
2019-03-09T00:17:53.101Z,1.73
2019-03-09T00:20:19.871Z,4.65
2019-03-09T00:22:50.776Z,4.30
2019-03-09T00:25:38.438Z,6.40
2019-03-09T00:28:11.026Z,4.97
2019-03-09T00:30:58.971Z,5.27
2019-03-09T00:33:25.794Z,6.03
2019-03-09T00:35:52.561Z,5.83
2019-03-09T00:38:19.261Z,7.97
2019-03-09T00:40:46.117Z,5.03
2019-03-09T00:43:12.787Z,6.13
2019-03-09T00:45:39.456Z,6.60
2019-03-09T00:48:06.347Z,7.17
2019-03-09T00:50:33.205Z,6.60
2019-03-09T00:52:59.885Z,6.50
2019-03-09T00:55:26.575Z,9.43
2019-03-09T00:57:53.258Z,6.07
2019-03-09T01:00:20.027Z,8.60
2019-03-09T01:02:46.698Z,8.03
2019-03-09T01:05:14.244Z,8.53
2019-03-09T01:07:41.007Z,7.30
2019-03-09T01:10:10.354Z,7.40
2019-03-09T01:12:37.041Z,9.53
2019-03-09T01:15:04.546Z,5.27
2019-03-09T01:17:31.607Z,7.80
2019-03-09T01:19:58.275Z,6.50
2019-03-09T01:22:25.039Z,5.30
2019-03-09T01:24:51.790Z,7.90
2019-03-09T01:27:18.680Z,7.70
2019-03-09T01:29:45.443Z,7.67
2019-03-09T01:32:12.302Z,7.07
2019-03-09T01:34:39.023Z,6.47
2019-03-09T01:37:05.781Z,7.53
2019-03-09T01:39:32.435Z,5.83
2019-03-09T01:41:59.199Z,5.90
2019-03-09T01:44:25.968Z,7.10
2019-03-09T01:46:52.644Z,4.53
2019-03-09T01:49:19.351Z,6.70
2019-03-09T01:51:46.161Z,8.40
2019-03-09T01:54:12.836Z,6.50
2019-03-09T01:56:39.621Z,6.33
2019-03-09T01:59:06.341Z,7.67
2019-03-09T02:01:33.106Z,8.00
2019-03-09T02:03:59.924Z,7.35
2019-03-09T02:06:26.695Z,6.47
2019-03-09T02:08:53.479Z,5.07
2019-03-09T02:11:20.230Z,5.20
2019-03-09T02:13:46.932Z,6.78
2019-03-09T02:16:13.730Z,4.30
2019-03-09T02:18:40.356Z,4.97
2019-03-09T02:21:07.263Z,6.62
2019-03-09T02:23:33.931Z,6.12
2019-03-09T02:26:00.590Z,5.00
2019-03-09T02:28:27.289Z,6.10
2019-03-09T02:30:54.058Z,9.80
2019-03-09T02:33:20.761Z,11.85
2019-03-09T02:35:47.473Z,7.85
2019-03-09T02:38:32.558Z,5.47
2019-03-09T02:40:59.261Z,6.67
2019-03-09T02:43:25.917Z,6.50
2019-03-09T02:45:52.596Z,8.20
2019-03-09T02:48:19.395Z,8.58
2019-03-09T02:50:55.294Z,7.25
2019-03-09T02:53:23.778Z,10.00
2019-03-09T02:55:50.470Z,8.43
2019-03-09T02:58:17.159Z,8.20
2019-03-09T03:00:47.675Z,4.20
2019-03-09T03:03:14.463Z,7.67
2019-03-09T03:05:41.275Z,10.53
2019-03-09T03:08:08.093Z,7.12
2019-03-09T03:10:34.754Z,7.45
2019-03-09T03:13:01.446Z,9.18
2019-03-09T03:15:30.073Z,8.65
2019-03-09T03:17:56.832Z,6.45
2019-03-09T03:20:23.755Z,6.72
2019-03-09T03:23:05.043Z,5.47
2019-03-09T03:25:31.775Z,6.90
2019-03-09T03:27:58.445Z,7.70
2019-03-09T03:30:25.238Z,10.25
2019-03-09T03:32:53.740Z,8.98
2019-03-09T03:35:20.520Z,7.10
2019-03-09T03:37:47.310Z,8.03
2019-03-09T03:40:14.233Z,9.30
2019-03-09T03:42:40.896Z,10.65
2019-03-09T03:45:07.744Z,10.72
2019-03-09T03:47:34.688Z,10.82
2019-03-09T03:50:02.846Z,11.75
2019-03-09T03:52:29.645Z,11.03
2019-03-09T03:54:56.473Z,15.28
2019-03-09T03:57:23.250Z,13.78
2019-03-09T03:59:49.933Z,10.03
2019-03-09T04:02:16.725Z,20.02
2019-03-09T04:04:43.522Z,12.43
2019-03-09T04:07:10.323Z,15.58
2019-03-09T04:09:38.127Z,12.40
2019-03-09T04:12:04.909Z,12.53
2019-03-09T04:14:31.581Z,18.70
2019-03-09T04:16:58.279Z,16.40
2019-03-09T04:19:25.122Z,15.45
2019-03-09T04:21:51.939Z,13.08
2019-03-09T04:24:18.614Z,13.30
2019-03-09T04:26:45.515Z,15.18
2019-03-09T04:29:12.285Z,19.80
2019-03-09T04:31:39.177Z,14.53
2019-03-09T04:34:06.268Z,11.18
2019-03-09T04:36:32.901Z,14.70
2019-03-09T04:38:59.616Z,12.10
2019-03-09T04:41:26.293Z,12.73
2019-03-09T04:43:52.978Z,10.88
2019-03-09T04:46:19.669Z,9.13
2019-03-09T04:48:46.374Z,14.63
2019-03-09T04:51:13.949Z,20.57
2019-03-09T04:53:40.641Z,16.23
2019-03-09T04:56:07.306Z,11.93
2019-03-09T04:58:33.969Z,14.60
2019-03-09T05:01:00.675Z,16.50
2019-03-09T05:03:27.541Z,23.22
2019-03-09T05:05:54.329Z,17.55
2019-03-09T05:08:48.420Z,12.70
2019-03-09T05:11:19.572Z,12.88
2019-03-09T05:14:13.857Z,16.67
2019-03-09T05:16:40.576Z,17.15
2019-03-09T05:19:07.256Z,15.55
2019-03-09T05:21:33.935Z,11.00
2019-03-09T05:24:00.821Z,13.32
2019-03-09T05:26:27.959Z,12.10
2019-03-09T05:28:54.696Z,13.83
2019-03-09T05:31:21.462Z,9.38
2019-03-09T05:33:48.150Z,8.33
2019-03-09T05:36:14.823Z,9.95
2019-03-09T05:38:41.505Z,9.03
2019-03-09T05:41:08.223Z,7.90
2019-03-09T05:43:35.045Z,6.42
2019-03-09T05:46:01.696Z,6.80
2019-03-09T05:48:28.365Z,6.45
2019-03-09T05:50:55.191Z,8.43
2019-03-09T05:53:22.074Z,5.30
2019-03-09T05:55:48.918Z,3.75
2019-03-09T05:58:15.590Z,4.10
2019-03-09T06:00:43.610Z,4.15
2019-03-09T06:03:10.411Z,3.73
2019-03-09T06:05:45.511Z,4.00
2019-03-09T06:08:12.315Z,5.33
2019-03-09T06:10:39.169Z,5.53
2019-03-09T06:13:05.941Z,4.33
2019-03-09T06:15:32.877Z,4.10
2019-03-09T06:17:59.630Z,5.10
2019-03-09T06:20:26.477Z,3.52
2019-03-09T06:22:53.146Z,3.27
2019-03-09T06:25:19.902Z,4.07
2019-03-09T06:27:46.658Z,3.17
2019-03-09T06:30:13.449Z,3.02
2019-03-09T06:33:14.777Z,3.17
2019-03-09T06:35:41.581Z,2.55
2019-03-09T06:38:32.214Z,1.93
2019-03-09T06:41:02.993Z,3.02
2019-03-09T06:43:27.486Z,4.17
2019-03-09T06:45:54.278Z,2.90
2019-03-09T06:48:21.254Z,1.77
2019-03-09T06:50:47.946Z,1.95
2019-03-09T06:53:14.638Z,2.20
2019-03-09T06:55:41.437Z,2.75
2019-03-09T06:58:08.101Z,3.40
2019-03-09T07:00:39.215Z,2.37
2019-03-09T07:03:06.803Z,3.60
2019-03-09T07:05:33.561Z,2.37
2019-03-09T07:08:00.347Z,2.93
2019-03-09T07:10:27.151Z,2.35
2019-03-09T07:12:53.807Z,3.33
2019-03-09T07:15:22.957Z,3.03
2019-03-09T07:17:55.129Z,2.53
2019-03-09T07:20:21.986Z,2.80
2019-03-09T07:22:48.769Z,3.47
2019-03-09T07:25:15.536Z,2.33
2019-03-09T07:27:42.285Z,2.50
2019-03-09T07:30:15.785Z,3.97
2019-03-09T07:32:42.505Z,3.93
2019-03-09T07:35:09.295Z,4.63
2019-03-09T07:37:37.034Z,5.20
2019-03-09T07:40:04.047Z,3.27
2019-03-09T07:42:31.186Z,2.70
2019-03-09T07:44:57.885Z,3.47
2019-03-09T07:47:24.568Z,3.70
2019-03-09T07:49:51.265Z,3.20
2019-03-09T07:52:32.418Z,4.03
2019-03-09T07:55:00.186Z,3.70
2019-03-09T07:57:27.337Z,4.37
2019-03-09T07:59:54.395Z,2.70
2019-03-09T08:02:21.150Z,3.20
2019-03-09T08:04:47.809Z,2.97
2019-03-09T08:07:14.911Z,4.23
2019-03-09T08:09:41.794Z,5.33
2019-03-09T08:12:08.681Z,4.03
2019-03-09T08:14:35.381Z,5.30
2019-03-09T08:17:02.180Z,5.10
2019-03-09T08:19:28.861Z,4.43
2019-03-09T08:21:55.830Z,3.53
2019-03-09T08:24:22.614Z,2.93
2019-03-09T08:26:51.575Z,3.43
2019-03-09T08:29:18.629Z,3.03
2019-03-09T08:31:45.277Z,3.87
2019-03-09T08:34:11.937Z,4.40
2019-03-09T08:36:38.820Z,2.00
2019-03-09T08:39:05.766Z,4.63
2019-03-09T08:41:33.468Z,3.93
2019-03-09T08:44:00.127Z,3.10
2019-03-09T08:46:26.893Z,4.53
2019-03-09T08:48:53.562Z,4.20
2019-03-09T08:51:20.259Z,4.23
2019-03-09T08:53:47.099Z,2.97
2019-03-09T08:56:13.919Z,2.43
2019-03-09T08:58:40.753Z,4.23
2019-03-09T09:01:15.652Z,2.67
2019-03-09T09:03:42.325Z,2.87
2019-03-09T09:06:09.105Z,2.60
2019-03-09T09:08:35.797Z,1.75
2019-03-09T09:11:02.589Z,3.17
2019-03-09T09:13:29.295Z,1.37
2019-03-09T09:15:56.505Z,1.60
2019-03-09T09:18:23.174Z,1.90
2019-03-09T09:20:49.962Z,2.52
2019-03-09T09:23:16.644Z,2.80
2019-03-09T09:25:43.318Z,1.22
2019-03-09T09:28:10.021Z,2.95
2019-03-09T09:30:36.897Z,3.62
2019-03-09T09:33:04.146Z,4.37
2019-03-09T09:35:30.965Z,4.30
2019-03-09T09:37:57.781Z,4.37
2019-03-09T09:40:24.673Z,1.73
2019-03-09T09:42:51.743Z,3.77
2019-03-09T09:45:18.757Z,1.70
2019-03-09T09:47:46.103Z,3.73
2019-03-09T09:50:13.245Z,3.40
2019-03-09T09:52:40.070Z,3.10
2019-03-09T09:55:09.159Z,4.13
2019-03-09T09:57:35.979Z,2.47
2019-03-09T10:00:03.772Z,2.57
2019-03-09T10:02:30.557Z,2.70
2019-03-09T10:04:57.330Z,2.60
2019-03-09T10:07:24.090Z,3.27
2019-03-09T10:09:50.765Z,2.10
2019-03-09T10:12:17.441Z,1.70
2019-03-09T10:14:44.117Z,1.70
2019-03-09T10:17:10.809Z,2.63
2019-03-09T10:19:38.604Z,1.83
2019-03-09T10:22:05.378Z,4.20
2019-03-09T10:24:32.214Z,2.50
2019-03-09T10:26:58.869Z,2.90
2019-03-09T10:29:25.534Z,2.83
2019-03-09T10:31:52.309Z,6.40
2019-03-09T10:34:19.082Z,12.10
2019-03-09T10:36:45.853Z,2.87
2019-03-09T10:39:12.770Z,2.77
2019-03-09T10:41:39.422Z,1.77
2019-03-09T10:44:06.104Z,3.17
2019-03-09T10:46:32.887Z,3.80
2019-03-09T10:48:59.544Z,3.07
2019-03-09T10:51:26.365Z,3.30
2019-03-09T10:53:53.055Z,2.97
2019-03-09T10:56:19.733Z,3.13
2019-03-09T10:58:46.409Z,2.50
2019-03-09T11:01:13.207Z,2.00
2019-03-09T11:03:39.963Z,3.00
2019-03-09T11:06:06.829Z,2.93
2019-03-09T11:08:33.715Z,3.10
2019-03-09T11:11:00.408Z,2.57
2019-03-09T11:13:27.173Z,1.40
2019-03-09T11:15:53.913Z,2.60
2019-03-09T11:18:20.522Z,3.80
2019-03-09T11:20:47.208Z,2.27
2019-03-09T11:23:13.872Z,4.73
2019-03-09T11:25:40.822Z,2.57
2019-03-09T11:28:09.267Z,3.20
2019-03-09T11:30:36.081Z,2.80
2019-03-09T11:33:02.869Z,3.50
2019-03-09T11:35:29.537Z,2.97
2019-03-09T11:37:56.359Z,3.97
2019-03-09T11:40:23.013Z,4.30
2019-03-09T11:42:50.462Z,4.10
2019-03-09T11:45:17.320Z,2.20
2019-03-09T11:47:44.103Z,3.60
2019-03-09T11:50:10.912Z,2.17
2019-03-09T11:52:37.705Z,5.23
2019-03-09T11:55:05.236Z,2.73
2019-03-09T11:57:32.225Z,2.53
2019-03-09T11:59:59.397Z,4.27
2019-03-09T12:03:05.785Z,3.23
2019-03-09T12:05:35.883Z,3.03
2019-03-09T12:08:02.653Z,2.57
2019-03-09T12:10:29.420Z,2.33
2019-03-09T12:12:56.092Z,3.70
2019-03-09T12:15:22.862Z,3.47
2019-03-09T12:17:50.968Z,2.07
2019-03-09T12:20:18.994Z,3.83
2019-03-09T12:22:45.964Z,2.90
2019-03-09T12:25:13.214Z,2.30
2019-03-09T12:27:39.908Z,3.17
2019-03-09T12:30:09.882Z,2.37
2019-03-09T12:32:36.670Z,2.90
2019-03-09T12:35:04.376Z,2.43
2019-03-09T12:37:31.056Z,2.33
2019-03-09T12:39:57.717Z,3.20
2019-03-09T12:42:24.870Z,1.90
2019-03-09T12:44:52.794Z,6.47
2019-03-09T12:47:20.265Z,8.73
2019-03-09T12:49:46.927Z,9.03
2019-03-09T12:52:13.722Z,7.33
2019-03-09T12:54:40.569Z,3.00
2019-03-09T12:57:07.358Z,3.53
2019-03-09T12:59:34.044Z,1.80
2019-03-09T13:02:00.725Z,1.40
2019-03-09T13:04:27.574Z,3.77
2019-03-09T13:06:54.230Z,2.43
2019-03-09T13:09:21.734Z,2.00
2019-03-09T13:11:48.421Z,2.47
2019-03-09T13:14:15.184Z,2.70
2019-03-09T13:16:41.859Z,2.10
2019-03-09T13:19:08.641Z,1.90
2019-03-09T13:21:35.648Z,1.17
2019-03-09T13:24:02.530Z,2.13
2019-03-09T13:26:29.436Z,2.97
2019-03-09T13:28:56.096Z,2.17
2019-03-09T13:31:22.866Z,2.53
2019-03-09T13:33:49.530Z,2.03
2019-03-09T13:36:16.327Z,3.40
2019-03-09T13:38:43.091Z,3.00
2019-03-09T13:41:09.859Z,2.67
2019-03-09T13:43:36.571Z,1.90
2019-03-09T13:46:03.579Z,2.33
2019-03-09T13:48:30.382Z,2.60
2019-03-09T13:50:57.464Z,2.50
2019-03-09T13:53:24.401Z,2.03
2019-03-09T13:55:52.764Z,1.83
2019-03-09T13:58:19.709Z,2.20
2019-03-09T14:00:46.483Z,2.80
2019-03-09T14:03:13.913Z,3.43
2019-03-09T14:05:40.569Z,4.20
2019-03-09T14:08:08.338Z,1.70
2019-03-09T14:10:37.930Z,3.60
2019-03-09T14:13:04.961Z,2.23
2019-03-09T14:15:31.735Z,2.00
2019-03-09T14:17:58.404Z,1.90
2019-03-09T14:20:25.168Z,1.07
2019-03-09T14:22:51.953Z,1.77
2019-03-09T14:25:18.899Z,1.80
2019-03-09T14:27:45.837Z,2.90
2019-03-09T14:30:13.146Z,2.23
2019-03-09T14:32:40.409Z,1.50
2019-03-09T14:35:07.301Z,1.50
2019-03-09T14:37:34.083Z,1.57
2019-03-09T14:40:00.843Z,2.40
2019-03-09T14:42:27.693Z,2.63
2019-03-09T14:44:54.389Z,3.20
2019-03-09T14:47:21.358Z,1.67
2019-03-09T14:49:48.157Z,7.50
2019-03-09T14:52:14.933Z,2.60
2019-03-09T14:54:42.240Z,1.97
2019-03-09T14:57:09.051Z,1.73
2019-03-09T14:59:35.729Z,2.50
2019-03-09T15:02:03.049Z,1.47
2019-03-09T15:04:29.771Z,1.93
2019-03-09T15:06:58.600Z,2.77
2019-03-09T15:09:25.387Z,2.37
2019-03-09T15:11:52.097Z,2.70
2019-03-09T15:14:18.754Z,1.80
2019-03-09T15:16:45.756Z,2.50
2019-03-09T15:19:12.532Z,2.63
2019-03-09T15:21:39.394Z,2.00
2019-03-09T15:24:06.077Z,1.30
2019-03-09T15:26:32.742Z,2.50
2019-03-09T15:28:59.590Z,1.97
2019-03-09T15:31:26.409Z,2.10
2019-03-09T15:33:53.410Z,1.40
2019-03-09T15:36:20.380Z,2.33
2019-03-09T15:38:47.354Z,1.50
2019-03-09T15:41:14.221Z,1.63
2019-03-09T15:43:40.989Z,1.70
2019-03-09T15:46:07.779Z,2.40
2019-03-09T15:48:34.765Z,0.87
2019-03-09T15:51:01.551Z,2.60
2019-03-09T15:53:28.240Z,1.20
2019-03-09T15:55:55.533Z,1.60
2019-03-09T15:58:22.600Z,2.00
2019-03-09T16:00:49.365Z,1.17
2019-03-09T16:03:16.606Z,2.00
2019-03-09T16:05:43.354Z,1.90
2019-03-09T16:08:10.272Z,2.20
2019-03-09T16:10:36.962Z,2.20
2019-03-09T16:13:03.721Z,2.00
2019-03-09T16:15:31.366Z,2.20
2019-03-09T16:17:58.128Z,2.30
2019-03-09T16:20:24.869Z,2.70
2019-03-09T16:22:51.750Z,1.63
2019-03-09T16:25:18.652Z,2.00
2019-03-09T16:27:45.444Z,2.67
2019-03-09T16:30:14.673Z,2.05
2019-03-09T16:32:41.537Z,1.40
2019-03-09T16:35:08.442Z,3.20
2019-03-09T16:37:35.155Z,2.00
2019-03-09T16:40:02.085Z,4.90
2019-03-09T16:42:29.069Z,10.40
2019-03-09T16:44:59.306Z,1.80
2019-03-09T16:47:26.113Z,1.80
2019-03-09T16:49:53.808Z,3.00
2019-03-09T16:52:21.048Z,3.08
2019-03-09T16:54:47.934Z,3.10
2019-03-09T16:57:14.734Z,3.65
2019-03-09T16:59:41.547Z,2.87
2019-03-09T17:02:08.310Z,5.30
2019-03-09T17:04:34.988Z,1.87
2019-03-09T17:07:01.692Z,2.90
2019-03-09T17:09:28.390Z,4.92
2019-03-09T17:11:55.189Z,2.67
2019-03-09T17:14:21.887Z,2.10
2019-03-09T17:16:48.681Z,4.87
2019-03-09T17:19:15.508Z,4.67
2019-03-09T17:21:42.594Z,2.50
2019-03-09T17:24:09.269Z,3.87
2019-03-09T17:26:35.971Z,3.50
2019-03-09T17:29:02.906Z,1.77
2019-03-09T17:31:29.762Z,2.15
2019-03-09T17:33:56.474Z,2.98
2019-03-09T17:36:24.169Z,4.12
2019-03-09T17:38:50.855Z,3.27
2019-03-09T17:41:17.646Z,1.47
2019-03-09T17:43:44.327Z,2.15
2019-03-09T17:46:11.104Z,1.20
2019-03-09T17:48:38.473Z,1.27
2019-03-09T17:51:05.189Z,1.00
2019-03-09T17:53:31.867Z,0.82
2019-03-09T17:55:58.573Z,1.12
2019-03-09T17:58:25.526Z,0.80
2019-03-09T18:00:52.321Z,1.05
2019-03-09T18:03:19.014Z,0.93
2019-03-09T18:05:45.950Z,0.82
2019-03-09T18:08:12.633Z,0.82
2019-03-09T18:10:42.576Z,1.95
2019-03-09T18:13:09.551Z,2.00
2019-03-09T18:15:36.306Z,0.80
2019-03-09T18:18:03.099Z,1.30
2019-03-09T18:20:29.785Z,1.27
2019-03-09T18:22:56.568Z,0.80
2019-03-09T18:25:23.334Z,0.78
2019-03-09T18:27:50.041Z,0.53
2019-03-09T18:30:16.931Z,0.70
2019-03-09T18:32:44.158Z,0.75
2019-03-09T18:35:10.923Z,40.95
2019-03-09T18:37:37.865Z,24.87
2019-03-09T18:40:05.251Z,0.95
2019-03-09T18:42:31.961Z,0.98
2019-03-09T18:44:58.633Z,0.60
2019-03-09T18:47:25.461Z,7.85
2019-03-09T18:49:52.509Z,12.15
2019-03-09T18:52:20.466Z,0.78
2019-03-09T18:54:47.131Z,1.75
2019-03-09T18:57:13.819Z,0.65
2019-03-09T18:59:40.924Z,1.35
2019-03-09T19:02:07.681Z,1.52
2019-03-09T19:04:34.368Z,1.10
2019-03-09T19:07:01.085Z,1.55
2019-03-09T19:09:27.767Z,1.45
2019-03-09T19:11:54.554Z,1.55
2019-03-09T19:14:21.246Z,26.82
2019-03-09T19:16:47.897Z,16.42
2019-03-09T19:19:14.578Z,3.95
2019-03-09T19:21:41.245Z,2.92
2019-03-09T19:24:08.025Z,1.50
2019-03-09T19:26:34.724Z,1.22
2019-03-09T19:29:01.663Z,1.72
2019-03-09T19:31:29.501Z,2.10
2019-03-09T19:33:56.182Z,2.72
2019-03-09T19:36:22.993Z,2.60
2019-03-09T19:38:49.645Z,0.80
2019-03-09T19:41:17.492Z,3.33
2019-03-09T19:43:44.273Z,1.05
2019-03-09T19:46:10.965Z,3.98
2019-03-09T19:48:37.676Z,1.40
2019-03-09T19:51:04.477Z,1.15
2019-03-09T19:53:31.171Z,1.45
2019-03-09T19:55:58.282Z,1.52
2019-03-09T19:58:25.153Z,2.40
2019-03-09T20:00:51.839Z,2.80
2019-03-09T20:03:18.537Z,1.05
2019-03-09T20:05:45.826Z,2.02
2019-03-09T20:08:12.610Z,1.92
2019-03-09T20:10:39.404Z,1.57
2019-03-09T20:13:06.327Z,3.08
2019-03-09T20:15:32.986Z,2.72
2019-03-09T20:18:00.214Z,3.52
2019-03-09T20:20:28.028Z,3.10
2019-03-09T20:22:55.222Z,2.17
2019-03-09T20:25:22.144Z,3.70
2019-03-09T20:27:48.897Z,2.75
2019-03-09T20:30:16.113Z,1.57
2019-03-09T20:32:43.131Z,2.30
2019-03-09T20:35:10.023Z,2.60
2019-03-09T20:37:37.046Z,1.87
2019-03-09T20:40:04.858Z,3.20
2019-03-09T20:42:31.932Z,1.85
2019-03-09T20:44:58.615Z,2.90
2019-03-09T20:47:25.288Z,2.62
2019-03-09T20:49:52.251Z,2.27
2019-03-09T20:52:18.971Z,1.82
2019-03-09T20:54:45.656Z,1.87
2019-03-09T20:57:12.610Z,4.25
2019-03-09T20:59:39.436Z,2.20
2019-03-09T21:02:06.208Z,2.27
2019-03-09T21:04:33.356Z,2.02
2019-03-09T21:07:00.184Z,2.02
2019-03-09T21:09:26.869Z,3.52
2019-03-09T21:11:53.914Z,1.72
2019-03-09T21:14:20.599Z,2.55
2019-03-09T21:16:47.277Z,2.02
2019-03-09T21:19:15.198Z,2.83
2019-03-09T21:21:41.962Z,1.90
2019-03-09T21:24:08.642Z,2.62
2019-03-09T21:26:35.345Z,2.50
2019-03-09T21:29:02.325Z,2.55
2019-03-09T21:31:29.117Z,1.62
2019-03-09T21:33:56.113Z,2.27
2019-03-09T21:36:22.792Z,3.00
2019-03-09T21:38:49.649Z,2.87
2019-03-09T21:41:16.317Z,2.35
2019-03-09T21:43:43.027Z,1.55
2019-03-09T21:46:10.005Z,1.47
2019-03-09T21:48:36.663Z,1.80
2019-03-09T21:51:03.440Z,0.80
2019-03-09T21:53:30.259Z,1.65
2019-03-09T21:55:56.946Z,1.85
2019-03-09T21:58:24.199Z,2.00
2019-03-09T22:00:50.995Z,2.20
2019-03-09T22:03:17.685Z,2.95
2019-03-09T22:05:44.407Z,3.58
2019-03-09T22:08:11.372Z,2.10
2019-03-09T22:10:38.086Z,2.37
2019-03-09T22:13:04.802Z,2.37
2019-03-09T22:15:31.645Z,1.90
2019-03-09T22:17:58.317Z,2.47
2019-03-09T22:20:24.993Z,2.98
2019-03-09T22:22:51.693Z,2.27
2019-03-09T22:25:18.471Z,3.27
2019-03-09T22:27:45.273Z,1.45
2019-03-09T22:30:12.186Z,2.05
2019-03-09T22:32:38.961Z,2.75
2019-03-09T22:35:07.168Z,2.75
2019-03-09T22:37:33.855Z,2.35
2019-03-09T22:40:00.549Z,1.30
2019-03-09T22:42:27.344Z,2.47
2019-03-09T22:44:54.093Z,0.85
2019-03-09T22:47:20.778Z,1.30
2019-03-09T22:49:47.499Z,1.35
2019-03-09T22:52:14.171Z,2.15
2019-03-09T22:54:40.865Z,1.90
2019-03-09T22:57:07.548Z,1.57
2019-03-09T22:59:34.202Z,2.02
2019-03-09T23:02:00.886Z,2.00
2019-03-09T23:04:27.562Z,2.42
2019-03-09T23:06:54.234Z,2.15
2019-03-09T23:09:21.158Z,2.58
2019-03-09T23:11:47.949Z,2.27
2019-03-09T23:14:14.632Z,2.33
2019-03-09T23:16:42.521Z,3.47
2019-03-09T23:19:09.410Z,2.62
2019-03-09T23:21:36.094Z,2.10
2019-03-09T23:24:02.900Z,2.55
2019-03-09T23:26:29.973Z,2.05
2019-03-09T23:28:56.749Z,1.27
2019-03-09T23:31:23.434Z,2.52
2019-03-09T23:33:50.124Z,1.35
2019-03-09T23:36:16.917Z,2.15
2019-03-09T23:38:43.717Z,3.25
2019-03-09T23:41:10.406Z,1.80
2019-03-09T23:43:37.094Z,2.27
2019-03-09T23:46:03.881Z,2.40
2019-03-09T23:48:30.645Z,3.08
2019-03-09T23:50:57.418Z,2.50
2019-03-09T23:53:24.254Z,1.32
2019-03-09T23:55:50.930Z,1.62
2019-03-09T23:58:17.709Z,1.10
